createdAt,value
2022-07-30T00:01:54.377Z,101050.88
2022-07-30T00:04:21.024Z,101061.16
2022-07-30T00:06:47.628Z,101052.91
2022-07-30T00:09:14.194Z,101058.50
2022-07-30T00:11:40.756Z,101051.28
2022-07-30T00:14:08.557Z,101064.06
2022-07-30T00:16:35.225Z,101057.44
2022-07-30T00:19:02.365Z,101056.63
2022-07-30T00:21:35.736Z,101049.19
2022-07-30T00:24:06.028Z,101058.06
2022-07-30T00:26:32.625Z,101044.63
2022-07-30T00:28:59.166Z,101048.75
2022-07-30T00:31:25.685Z,101051.25
2022-07-30T00:33:52.261Z,101044.81
2022-07-30T00:36:21.528Z,101046.09
2022-07-30T00:38:48.065Z,101042.56
2022-07-30T00:41:15.588Z,101043.63
2022-07-30T00:43:42.954Z,101042.16
2022-07-30T00:46:09.677Z,101044.44
2022-07-30T00:48:36.461Z,101032.50
2022-07-30T00:51:03.058Z,101038.47
2022-07-30T00:53:29.951Z,101038.03
2022-07-30T00:55:56.588Z,101036.34
2022-07-30T00:58:23.204Z,101042.69
2022-07-30T01:00:49.842Z,101035.72
2022-07-30T01:03:16.419Z,101039.59
2022-07-30T01:05:42.905Z,101046.56
2022-07-30T01:08:09.455Z,101046.53
2022-07-30T01:10:36.006Z,101054.59
2022-07-30T01:13:03.815Z,101048.63
2022-07-30T01:15:30.758Z,101056.31
2022-07-30T01:18:00.427Z,101059.00
2022-07-30T01:20:32.044Z,101047.47
2022-07-30T01:23:20.463Z,101048.69
2022-07-30T01:25:58.535Z,101049.50
2022-07-30T01:28:30.354Z,101050.78
2022-07-30T01:30:58.145Z,101043.34
2022-07-30T01:33:26.386Z,101049.34
2022-07-30T01:35:54.414Z,101052.13
2022-07-30T01:38:23.732Z,101052.94
2022-07-30T01:40:52.104Z,101046.78
2022-07-30T01:43:21.072Z,101055.78
2022-07-30T01:45:49.594Z,101054.56
2022-07-30T01:48:19.971Z,101053.16
2022-07-30T01:50:50.356Z,101059.09
2022-07-30T01:53:19.151Z,101056.81
2022-07-30T01:55:46.703Z,101059.69
2022-07-30T01:58:15.255Z,101061.69
2022-07-30T02:00:43.850Z,101058.19
2022-07-30T02:03:11.196Z,101068.50
2022-07-30T02:05:40.746Z,101057.53
2022-07-30T02:08:11.069Z,101063.69
2022-07-30T02:10:45.037Z,101068.22
2022-07-30T02:13:20.479Z,101067.16
2022-07-30T02:15:59.435Z,101070.47
2022-07-30T02:19:00.153Z,101065.44
2022-07-30T02:21:36.540Z,101063.78
2022-07-30T02:24:08.359Z,101065.44
2022-07-30T02:26:37.268Z,101053.59
2022-07-30T02:29:08.390Z,101062.25
2022-07-30T02:31:39.667Z,101063.34
2022-07-30T02:34:08.366Z,101063.22
2022-07-30T02:36:37.190Z,101058.63
2022-07-30T02:39:05.053Z,101067.75
2022-07-30T02:41:33.033Z,101055.44
2022-07-30T02:44:00.550Z,101057.81
2022-07-30T02:46:28.523Z,101063.63
2022-07-30T02:48:57.556Z,101063.44
2022-07-30T02:51:25.763Z,101060.69
2022-07-30T02:53:55.263Z,101062.13
2022-07-30T02:56:22.846Z,101065.22
2022-07-30T02:58:51.752Z,101065.22
2022-07-30T03:01:21.722Z,101068.47
2022-07-30T03:03:49.707Z,101067.47
2022-07-30T03:06:18.236Z,101066.75
2022-07-30T03:08:46.404Z,101067.97
2022-07-30T03:11:17.465Z,101072.28
2022-07-30T03:13:44.135Z,101064.25
2022-07-30T03:16:12.645Z,101071.25
2022-07-30T03:18:43.010Z,101067.50
2022-07-30T03:21:11.882Z,101069.47
2022-07-30T03:23:40.215Z,101071.41
2022-07-30T03:26:08.970Z,101076.38
2022-07-30T03:28:39.220Z,101087.47
2022-07-30T03:31:07.169Z,101088.47
2022-07-30T03:33:38.714Z,101094.84
2022-07-30T03:36:07.688Z,101091.97
2022-07-30T03:38:37.668Z,101091.22
2022-07-30T03:41:06.463Z,101090.34
2022-07-30T03:43:34.270Z,101095.63
2022-07-30T03:46:05.315Z,101101.56
2022-07-30T03:48:34.313Z,101106.31
2022-07-30T03:51:04.021Z,101105.25
2022-07-30T03:53:31.795Z,101108.00
2022-07-30T03:55:58.904Z,101107.53
2022-07-30T03:58:25.525Z,101113.41
2022-07-30T04:00:52.100Z,101117.16
2022-07-30T04:03:28.810Z,101114.56
2022-07-30T04:05:55.654Z,101122.72
2022-07-30T04:08:22.627Z,101129.66
2022-07-30T04:10:50.505Z,101138.31
2022-07-30T04:13:17.403Z,101141.44
2022-07-30T04:16:35.519Z,101140.16
2022-07-30T04:18:43.087Z,101139.97
2022-07-30T04:21:16.013Z,101144.56
2022-07-30T04:24:02.342Z,101153.81
2022-07-30T04:26:32.935Z,101146.16
2022-07-30T04:29:00.132Z,101154.19
2022-07-30T04:31:28.482Z,101155.91
2022-07-30T04:33:55.443Z,101159.91
2022-07-30T04:36:25.395Z,101162.22
2022-07-30T04:38:51.969Z,101161.94
2022-07-30T04:41:18.473Z,101173.09
2022-07-30T04:43:45.004Z,101167.38
2022-07-30T04:46:11.584Z,101170.97
2022-07-30T04:48:38.603Z,101173.09
2022-07-30T04:51:12.138Z,101175.13
2022-07-30T04:53:40.350Z,101176.59
2022-07-30T04:56:07.804Z,101180.56
2022-07-30T04:58:35.711Z,101190.75
2022-07-30T05:01:03.034Z,101184.06
2022-07-30T05:03:31.537Z,101180.19
2022-07-30T05:06:00.695Z,101191.25
2022-07-30T05:08:28.227Z,101189.78
2022-07-30T05:10:56.651Z,101190.13
2022-07-30T05:13:23.223Z,101191.13
2022-07-30T05:16:00.843Z,101196.03
2022-07-30T05:18:27.403Z,101197.06
2022-07-30T05:20:54.368Z,101189.81
2022-07-30T05:23:20.907Z,101196.56
2022-07-30T05:25:47.441Z,101193.31
2022-07-30T05:28:13.942Z,101202.19
2022-07-30T05:30:41.974Z,101198.78
2022-07-30T05:33:15.544Z,101197.97
2022-07-30T05:35:42.592Z,101206.06
2022-07-30T05:38:09.426Z,101202.34
2022-07-30T05:40:36.076Z,101200.97
2022-07-30T05:43:02.723Z,101203.78
2022-07-30T05:45:29.558Z,101194.00
2022-07-30T05:47:56.092Z,101199.34
2022-07-30T05:50:22.752Z,101203.38
2022-07-30T05:52:49.436Z,101199.91
2022-07-30T05:55:15.999Z,101205.72
2022-07-30T05:57:45.605Z,101195.63
2022-07-30T06:00:13.054Z,101205.53
2022-07-30T06:02:40.708Z,101205.78
2022-07-30T06:05:07.807Z,101208.75
2022-07-30T06:07:34.863Z,101206.47
2022-07-30T06:10:01.787Z,101208.00
2022-07-30T06:12:29.049Z,101211.13
2022-07-30T06:14:55.919Z,101211.53
2022-07-30T06:17:22.546Z,101210.94
2022-07-30T06:19:49.110Z,101220.16
2022-07-30T06:22:15.638Z,101222.47
2022-07-30T06:24:42.178Z,101226.25
2022-07-30T06:27:09.263Z,101225.28
2022-07-30T06:29:36.277Z,101213.03
2022-07-30T06:32:02.832Z,101227.63
2022-07-30T06:34:29.326Z,101225.97
2022-07-30T06:36:55.862Z,101224.72
2022-07-30T06:39:55.975Z,101236.38
2022-07-30T06:42:08.941Z,101233.56
2022-07-30T06:44:35.829Z,101235.47
2022-07-30T06:47:07.485Z,101238.91
2022-07-30T06:49:35.441Z,101232.47
2022-07-30T06:52:02.534Z,101239.72
2022-07-30T06:54:29.170Z,101241.91
2022-07-30T06:56:55.773Z,101240.81
2022-07-30T06:59:22.425Z,101243.66
2022-07-30T07:01:49.686Z,101241.63
2022-07-30T07:04:16.742Z,101241.53
2022-07-30T07:06:43.283Z,101238.91
2022-07-30T07:09:13.032Z,101247.44
2022-07-30T07:11:39.603Z,101252.13
2022-07-30T07:14:06.142Z,101246.31
2022-07-30T07:16:32.705Z,101245.91
2022-07-30T07:18:59.256Z,101242.66
2022-07-30T07:21:25.919Z,101252.56
2022-07-30T07:23:52.446Z,101256.78
2022-07-30T07:26:19.175Z,101264.44
2022-07-30T07:28:45.774Z,101253.47
2022-07-30T07:32:06.961Z,101257.44
2022-07-30T07:33:59.071Z,101263.03
2022-07-30T07:36:25.605Z,101259.72
2022-07-30T07:38:53.948Z,101259.34
2022-07-30T07:41:20.688Z,101257.91
2022-07-30T07:43:47.254Z,101256.69
2022-07-30T07:46:16.677Z,101261.38
2022-07-30T07:49:02.797Z,101253.81
2022-07-30T07:51:34.775Z,101262.59
2022-07-30T07:54:21.521Z,101257.91
2022-07-30T07:56:51.622Z,101264.28
2022-07-30T07:59:19.646Z,101263.63
2022-07-30T08:01:46.614Z,101266.97
2022-07-30T08:04:14.274Z,101268.81
2022-07-30T08:06:40.896Z,101268.47
2022-07-30T08:09:09.688Z,101267.13
2022-07-30T08:11:36.693Z,101272.69
2022-07-30T08:14:03.273Z,101263.22
2022-07-30T08:16:29.925Z,101271.03
2022-07-30T08:18:57.645Z,101257.31
2022-07-30T08:21:24.165Z,101259.59
2022-07-30T08:23:50.777Z,101263.31
2022-07-30T08:26:17.325Z,101272.56
2022-07-30T08:28:43.846Z,101270.13
2022-07-30T08:31:10.462Z,101264.97
2022-07-30T08:33:37.025Z,101272.56
2022-07-30T08:36:08.988Z,101265.94
2022-07-30T08:38:36.589Z,101267.34
2022-07-30T08:41:03.114Z,101269.81
2022-07-30T08:43:30.564Z,101272.44
2022-07-30T08:45:58.018Z,101276.56
2022-07-30T08:48:25.316Z,101276.75
2022-07-30T08:50:52.384Z,101276.44
2022-07-30T08:53:22.122Z,101276.28
2022-07-30T08:55:48.752Z,101272.63
2022-07-30T08:58:30.603Z,101275.19
2022-07-30T09:00:57.890Z,101270.06
2022-07-30T09:03:24.545Z,101275.63
2022-07-30T09:05:51.144Z,101269.19
2022-07-30T09:08:18.822Z,101281.69
2022-07-30T09:10:52.953Z,101280.50
2022-07-30T09:13:23.826Z,101292.53
2022-07-30T09:15:50.848Z,101293.88
2022-07-30T09:18:28.336Z,101284.72
2022-07-30T09:20:54.928Z,101292.66
2022-07-30T09:23:21.745Z,101293.38
2022-07-30T09:25:49.293Z,101297.97
2022-07-30T09:28:17.047Z,101289.22
2022-07-30T09:30:46.954Z,101293.38
2022-07-30T09:33:13.563Z,101289.81
2022-07-30T09:35:41.438Z,101297.34
2022-07-30T09:38:08.804Z,101287.25
2022-07-30T09:40:35.677Z,101286.41
2022-07-30T09:43:10.505Z,101279.75
2022-07-30T09:45:57.236Z,101282.91
2022-07-30T09:48:28.424Z,101277.19
2022-07-30T09:50:57.609Z,101273.94
2022-07-30T09:53:24.816Z,101279.88
2022-07-30T09:55:53.281Z,101277.16
2022-07-30T09:58:27.105Z,101289.91
2022-07-30T10:01:01.001Z,101292.16
2022-07-30T10:03:33.922Z,101288.66
2022-07-30T10:06:08.861Z,101291.09
2022-07-30T10:08:58.084Z,101284.44
2022-07-30T10:11:26.733Z,101282.97
2022-07-30T10:13:59.415Z,101274.13
2022-07-30T10:16:27.371Z,101275.50
2022-07-30T10:18:57.548Z,101278.88
2022-07-30T10:21:25.773Z,101265.34
2022-07-30T10:23:53.736Z,101266.47
2022-07-30T10:26:21.175Z,101263.50
2022-07-30T10:28:48.131Z,101261.25
2022-07-30T10:31:48.802Z,101259.66
2022-07-30T10:34:02.596Z,101263.66
2022-07-30T10:36:30.314Z,101262.59
2022-07-30T10:38:57.113Z,101259.53
2022-07-30T10:41:48.524Z,101260.06
2022-07-30T10:44:29.931Z,101258.88
2022-07-30T10:47:09.222Z,101262.06
2022-07-30T10:49:41.167Z,101262.50
2022-07-30T10:52:09.735Z,101266.34
2022-07-30T10:54:39.471Z,101261.63
2022-07-30T10:57:23.007Z,101255.56
2022-07-30T11:00:01.263Z,101252.84
2022-07-30T11:02:34.903Z,101249.78
2022-07-30T11:05:43.713Z,101242.09
2022-07-30T11:08:42.991Z,101244.81
2022-07-30T11:11:59.410Z,101240.41
2022-07-30T11:14:11.120Z,101247.09
2022-07-30T11:16:43.030Z,101247.09
2022-07-30T11:19:55.522Z,101243.16
2022-07-30T11:22:26.390Z,101243.78
2022-07-30T11:24:53.397Z,101251.72
2022-07-30T11:27:45.725Z,101235.53
2022-07-30T11:30:23.448Z,101248.47
2022-07-30T11:32:52.514Z,101244.13
2022-07-30T11:35:23.000Z,101246.00
2022-07-30T11:38:18.634Z,101245.88
2022-07-30T11:40:45.691Z,101248.72
2022-07-30T11:43:18.067Z,101239.88
2022-07-30T11:45:49.380Z,101239.41
2022-07-30T11:48:18.276Z,101246.22
2022-07-30T11:50:46.836Z,101241.78
2022-07-30T11:53:21.183Z,101235.97
2022-07-30T11:55:59.152Z,101238.13
2022-07-30T11:58:30.019Z,101231.34
2022-07-30T12:01:01.992Z,101230.22
2022-07-30T12:03:31.828Z,101244.50
2022-07-30T12:06:05.737Z,101245.00
2022-07-30T12:08:49.415Z,101251.44
2022-07-30T12:11:16.943Z,101243.81
2022-07-30T12:13:57.749Z,101241.22
2022-07-30T12:16:24.276Z,101232.66
2022-07-30T12:18:50.886Z,101227.13
2022-07-30T12:21:17.841Z,101233.00
2022-07-30T12:24:09.938Z,101228.63
2022-07-30T12:26:36.777Z,101221.16
2022-07-30T12:29:06.603Z,101230.38
2022-07-30T12:31:33.913Z,101225.16
2022-07-30T12:34:00.926Z,101235.53
2022-07-30T12:36:32.093Z,101226.75
2022-07-30T12:39:00.528Z,101230.25
2022-07-30T12:41:46.248Z,101218.19
2022-07-30T12:44:36.903Z,101212.19
2022-07-30T12:47:06.370Z,101224.53
2022-07-30T12:49:36.894Z,101209.44
2022-07-30T12:52:28.726Z,101214.97
2022-07-30T12:55:04.276Z,101211.63
2022-07-30T12:58:05.461Z,101217.69
2022-07-30T13:00:36.081Z,101212.25
2022-07-30T13:03:02.805Z,101205.72
2022-07-30T13:05:49.755Z,101211.38
2022-07-30T13:08:16.925Z,101201.84
2022-07-30T13:11:00.453Z,101199.78
2022-07-30T13:13:28.806Z,101205.81
2022-07-30T13:16:03.815Z,101213.75
2022-07-30T13:18:31.690Z,101203.97
2022-07-30T13:20:59.613Z,101199.16
2022-07-30T13:23:30.187Z,101214.97
2022-07-30T13:25:57.583Z,101208.03
2022-07-30T13:28:24.934Z,101200.16
2022-07-30T13:30:51.929Z,101198.47
2022-07-30T13:33:18.866Z,101196.84
2022-07-30T13:35:45.479Z,101197.50
2022-07-30T13:38:14.896Z,101209.22
2022-07-30T13:40:41.961Z,101208.59
2022-07-30T13:43:09.024Z,101210.56
2022-07-30T13:45:35.940Z,101203.88
2022-07-30T13:48:05.347Z,101203.97
2022-07-30T13:50:31.989Z,101198.84
2022-07-30T13:53:01.994Z,101189.84
2022-07-30T13:55:29.152Z,101190.66
2022-07-30T13:57:55.904Z,101188.16
2022-07-30T14:00:23.047Z,101193.53
2022-07-30T14:02:49.915Z,101189.78
2022-07-30T14:05:16.642Z,101193.91
2022-07-30T14:07:43.236Z,101183.72
2022-07-30T14:10:09.814Z,101178.25
2022-07-30T14:12:37.858Z,101179.25
2022-07-30T14:15:04.979Z,101184.19
2022-07-30T14:17:31.982Z,101181.09
2022-07-30T14:19:58.535Z,101171.56
2022-07-30T14:22:25.154Z,101178.44
2022-07-30T14:24:51.708Z,101173.63
2022-07-30T14:27:20.444Z,101163.81
2022-07-30T14:29:47.576Z,101166.97
2022-07-30T14:32:14.436Z,101168.63
2022-07-30T14:34:41.375Z,101169.34
2022-07-30T14:37:16.053Z,101158.81
2022-07-30T14:39:42.627Z,101153.59
2022-07-30T14:42:09.204Z,101157.34
2022-07-30T14:44:35.772Z,101157.53
2022-07-30T14:47:02.994Z,101156.34
2022-07-30T14:49:29.921Z,101162.34
2022-07-30T14:51:56.552Z,101159.84
2022-07-30T14:54:27.858Z,101165.16
2022-07-30T14:56:58.220Z,101163.44
2022-07-30T14:59:27.413Z,101163.44
2022-07-30T15:01:55.177Z,101160.44
2022-07-30T15:04:22.443Z,101163.66
2022-07-30T15:06:49.203Z,101165.94
2022-07-30T15:09:15.815Z,101159.41
2022-07-30T15:12:07.734Z,101170.88
2022-07-30T15:14:29.226Z,101164.34
2022-07-30T15:17:00.648Z,101160.63
2022-07-30T15:19:30.430Z,101160.97
2022-07-30T15:21:57.070Z,101163.19
2022-07-30T15:24:26.307Z,101165.47
2022-07-30T15:26:54.693Z,101164.38
2022-07-30T15:29:21.349Z,101164.00
2022-07-30T15:31:47.917Z,101158.66
2022-07-30T15:34:14.443Z,101165.44
2022-07-30T15:36:41.013Z,101158.06
2022-07-30T15:39:07.730Z,101153.50
2022-07-30T15:41:34.389Z,101144.63
2022-07-30T15:44:00.997Z,101145.03
2022-07-30T15:46:27.627Z,101144.63
2022-07-30T15:48:54.535Z,101148.56
2022-07-30T15:51:21.216Z,101151.75
2022-07-30T15:53:47.795Z,101151.59
2022-07-30T15:56:15.793Z,101147.66
2022-07-30T15:58:43.662Z,101151.53
2022-07-30T16:01:10.438Z,101158.31
2022-07-30T16:03:37.077Z,101157.34
2022-07-30T16:06:03.733Z,101153.53
2022-07-30T16:08:30.445Z,101144.03
2022-07-30T16:10:58.128Z,101147.09
2022-07-30T16:13:24.634Z,101137.75
2022-07-30T16:15:51.256Z,101133.13
2022-07-30T16:18:17.786Z,101135.69
2022-07-30T16:20:44.396Z,101140.06
2022-07-30T16:23:14.133Z,101138.13
2022-07-30T16:25:43.622Z,101133.97
2022-07-30T16:28:10.177Z,101133.56
2022-07-30T16:30:50.502Z,101132.06
2022-07-30T16:33:18.616Z,101128.56
2022-07-30T16:35:48.851Z,101139.72
2022-07-30T16:38:17.494Z,101131.28
2022-07-30T16:40:44.392Z,101131.78
2022-07-30T16:43:11.126Z,101133.16
2022-07-30T16:45:38.116Z,101130.13
2022-07-30T16:48:05.784Z,101138.41
2022-07-30T16:50:32.370Z,101137.06
2022-07-30T16:52:58.878Z,101140.22
2022-07-30T16:55:25.539Z,101126.66
2022-07-30T16:57:52.069Z,101130.69
2022-07-30T17:00:18.677Z,101132.97
2022-07-30T17:02:45.321Z,101128.63
2022-07-30T17:05:13.853Z,101125.41
2022-07-30T17:07:40.813Z,101118.69
2022-07-30T17:10:11.028Z,101118.78
2022-07-30T17:12:39.077Z,101123.28
2022-07-30T17:15:07.663Z,101120.34
2022-07-30T17:17:34.252Z,101120.91
2022-07-30T17:20:01.933Z,101124.22
2022-07-30T17:22:28.987Z,101119.84
2022-07-30T17:24:55.510Z,101119.97
2022-07-30T17:27:22.035Z,101124.09
2022-07-30T17:29:50.389Z,101129.44
2022-07-30T17:32:20.965Z,101134.63
2022-07-30T17:34:48.991Z,101135.53
2022-07-30T17:37:16.485Z,101143.34
2022-07-30T17:40:26.394Z,101139.81
2022-07-30T17:42:29.734Z,101131.84
2022-07-30T17:44:56.304Z,101139.56
2022-07-30T17:47:22.878Z,101137.75
2022-07-30T17:49:49.396Z,101141.72
2022-07-30T17:52:15.981Z,101151.31
2022-07-30T17:54:42.615Z,101144.59
2022-07-30T17:57:09.266Z,101148.03
2022-07-30T17:59:35.856Z,101146.03
2022-07-30T18:02:04.432Z,101153.44
2022-07-30T18:04:31.333Z,101152.34
2022-07-30T18:06:57.880Z,101157.75
2022-07-30T18:09:24.469Z,101160.09
2022-07-30T18:11:51.064Z,101158.94
2022-07-30T18:14:17.723Z,101162.75
2022-07-30T18:16:44.280Z,101160.78
2022-07-30T18:19:22.865Z,101165.72
2022-07-30T18:21:54.163Z,101155.97
2022-07-30T18:24:21.400Z,101160.25
2022-07-30T18:26:52.283Z,101164.00
2022-07-30T18:29:18.818Z,101170.06
2022-07-30T18:31:47.568Z,101169.34
2022-07-30T18:34:14.307Z,101174.63
2022-07-30T18:36:40.914Z,101174.16
2022-07-30T18:39:07.545Z,101172.41
2022-07-30T18:41:34.173Z,101161.56
2022-07-30T18:44:00.779Z,101171.00
2022-07-30T18:46:27.356Z,101166.28
2022-07-30T18:48:54.021Z,101172.19
2022-07-30T18:51:25.049Z,101183.13
2022-07-30T18:53:52.471Z,101187.38
2022-07-30T18:56:19.538Z,101188.66
2022-07-30T18:58:46.432Z,101187.25
2022-07-30T19:01:13.771Z,101187.03
2022-07-30T19:03:40.403Z,101182.53
2022-07-30T19:06:06.988Z,101181.84
2022-07-30T19:08:33.521Z,101180.09
2022-07-30T19:11:00.093Z,101173.50
2022-07-30T19:13:26.799Z,101170.19
2022-07-30T19:15:54.035Z,101179.38
2022-07-30T19:18:20.550Z,101182.06
2022-07-30T19:20:47.184Z,101182.13
2022-07-30T19:23:15.195Z,101178.97
2022-07-30T19:25:42.020Z,101184.84
2022-07-30T19:28:08.732Z,101180.13
2022-07-30T19:30:35.248Z,101181.41
2022-07-30T19:33:14.798Z,101181.41
2022-07-30T19:35:42.924Z,101177.88
2022-07-30T19:38:11.933Z,101183.53
2022-07-30T19:40:48.175Z,101189.97
2022-07-30T19:43:16.092Z,101185.28
2022-07-30T19:45:46.813Z,101189.28
2022-07-30T19:48:29.292Z,101192.22
2022-07-30T19:50:59.102Z,101196.06
2022-07-30T19:53:26.557Z,101197.97
2022-07-30T19:55:54.673Z,101197.91
2022-07-30T19:58:21.906Z,101201.41
2022-07-30T20:00:51.497Z,101201.47
2022-07-30T20:03:26.140Z,101207.72
2022-07-30T20:05:59.457Z,101209.81
2022-07-30T20:08:27.608Z,101208.28
2022-07-30T20:10:57.614Z,101205.97
2022-07-30T20:13:44.795Z,101198.44
2022-07-30T20:16:12.238Z,101197.63
2022-07-30T20:18:39.691Z,101198.44
2022-07-30T20:21:07.128Z,101200.31
2022-07-30T20:23:39.662Z,101203.28
2022-07-30T20:26:12.426Z,101206.06
2022-07-30T20:28:40.971Z,101211.16
2022-07-30T20:31:08.384Z,101201.88
2022-07-30T20:33:37.770Z,101202.66
2022-07-30T20:36:06.241Z,101205.16
2022-07-30T20:38:38.848Z,101204.13
2022-07-30T20:41:09.991Z,101206.44
2022-07-30T20:43:46.073Z,101202.91
2022-07-30T20:46:18.368Z,101205.38
2022-07-30T20:48:45.911Z,101208.91
2022-07-30T20:51:12.502Z,101208.91
2022-07-30T20:53:41.851Z,101195.38
2022-07-30T20:56:12.236Z,101207.72
2022-07-30T20:58:40.806Z,101211.69
2022-07-30T21:01:07.874Z,101210.09
2022-07-30T21:03:34.495Z,101217.84
2022-07-30T21:06:02.823Z,101210.59
2022-07-30T21:08:29.451Z,101211.38
2022-07-30T21:10:57.346Z,101216.44
2022-07-30T21:13:26.783Z,101212.53
2022-07-30T21:16:01.810Z,101208.19
2022-07-30T21:18:29.325Z,101201.97
2022-07-30T21:20:57.280Z,101206.53
2022-07-30T21:23:24.788Z,101206.97
2022-07-30T21:26:02.804Z,101202.25
2022-07-30T21:31:17.775Z,101199.63
2022-07-30T21:33:44.349Z,101209.84
2022-07-30T21:36:12.076Z,101206.75
2022-07-30T21:38:42.359Z,101205.13
2022-07-30T21:41:15.330Z,101200.31
2022-07-30T21:43:45.851Z,101199.72
2022-07-30T21:46:15.930Z,101206.59
2022-07-30T21:48:56.516Z,101200.91
2022-07-30T21:51:25.966Z,101193.69
2022-07-30T21:53:53.335Z,101199.78
2022-07-30T21:56:20.292Z,101194.25
2022-07-30T21:58:48.552Z,101191.75
2022-07-30T22:01:18.627Z,101183.88
2022-07-30T22:04:04.281Z,101188.44
2022-07-30T22:06:38.475Z,101175.41
2022-07-30T22:09:18.298Z,101187.03
2022-07-30T22:11:53.346Z,101188.44
2022-07-30T22:14:19.920Z,101189.88
2022-07-30T22:16:46.867Z,101190.72
2022-07-30T22:19:14.799Z,101186.59
2022-07-30T22:21:42.689Z,101187.84
2022-07-30T22:24:28.741Z,101185.38
2022-07-30T22:27:10.018Z,101185.22
2022-07-30T22:29:42.678Z,101187.16
2022-07-30T22:32:09.680Z,101189.47
2022-07-30T22:34:37.626Z,101192.00
2022-07-30T22:37:04.226Z,101194.91
2022-07-30T22:39:32.181Z,101189.56
2022-07-30T22:42:17.035Z,101185.88
2022-07-30T22:44:45.930Z,101175.53
2022-07-30T22:47:18.823Z,101182.00
2022-07-30T22:49:55.242Z,101187.19
2022-07-30T22:52:24.634Z,101180.00
2022-07-30T22:54:52.360Z,101176.66
2022-07-30T22:57:23.006Z,101178.34
2022-07-30T22:59:57.592Z,101176.31
2022-07-30T23:02:25.484Z,101188.09
2022-07-30T23:04:54.633Z,101189.72
2022-07-30T23:07:23.390Z,101184.72
2022-07-30T23:12:32.351Z,101204.81
2022-07-30T23:12:34.086Z,101178.50
2022-07-30T23:12:37.077Z,101185.75
2022-07-30T23:15:05.794Z,101185.13
2022-07-30T23:17:32.296Z,101180.31
2022-07-30T23:19:58.842Z,101175.53
2022-07-30T23:22:25.765Z,101176.59
2022-07-30T23:24:52.328Z,101173.09
2022-07-30T23:27:18.894Z,101174.16
2022-07-30T23:29:45.434Z,101177.91
2022-07-30T23:32:12.013Z,101171.91
2022-07-30T23:34:38.524Z,101171.06
2022-07-30T23:37:05.977Z,101172.53
2022-07-30T23:39:32.691Z,101169.25
2022-07-30T23:41:59.284Z,101164.06
2022-07-30T23:44:25.824Z,101163.66
2022-07-30T23:46:52.408Z,101167.66
2022-07-30T23:49:18.967Z,101165.03
2022-07-30T23:51:45.514Z,101164.84
2022-07-30T23:54:12.044Z,101169.44
2022-07-30T23:56:39.388Z,101170.28
2022-07-30T23:59:05.928Z,101162.88
